sensor_id;sensor_type;location;lat;lon;timestamp;pressure;altitude;pressure_sealevel;temperature;humidity
72560;BME280;62987;52.382;9.752;2023-08-08T00:01:47;100489.59;;;12.00;100.00
72560;BME280;62987;52.382;9.752;2023-08-08T00:04:15;100508.59;;;12.11;100.00
72560;BME280;62987;52.382;9.752;2023-08-08T00:06:44;100466.56;;;11.99;100.00
72560;BME280;62987;52.382;9.752;2023-08-08T00:09:13;100502.16;;;12.15;100.00
72560;BME280;62987;52.382;9.752;2023-08-08T00:11:41;100493.03;;;12.19;100.00
72560;BME280;62987;52.382;9.752;2023-08-08T00:14:10;100492.97;;;12.21;100.00
72560;BME280;62987;52.382;9.752;2023-08-08T00:16:38;100500.56;;;12.28;100.00
72560;BME280;62987;52.382;9.752;2023-08-08T00:19:06;100510.13;;;12.32;100.00
72560;BME280;62987;52.382;9.752;2023-08-08T00:21:34;100476.56;;;12.28;100.00
72560;BME280;62987;52.382;9.752;2023-08-08T00:24:03;100500.84;;;12.39;100.00
72560;BME280;62987;52.382;9.752;2023-08-08T00:26:33;100491.06;;;12.40;100.00
72560;BME280;62987;52.382;9.752;2023-08-08T00:29:01;100496.31;;;12.41;100.00
72560;BME280;62987;52.382;9.752;2023-08-08T00:31:29;100487.69;;;12.36;100.00
72560;BME280;62987;52.382;9.752;2023-08-08T00:33:57;100476.72;;;12.25;100.00
72560;BME280;62987;52.382;9.752;2023-08-08T00:36:25;100488.47;;;12.38;100.00
72560;BME280;62987;52.382;9.752;2023-08-08T00:38:54;100468.31;;;12.33;100.00
72560;BME280;62987;52.382;9.752;2023-08-08T00:41:22;100463.31;;;12.27;100.00
72560;BME280;62987;52.382;9.752;2023-08-08T00:43:52;100479.59;;;12.38;100.00
72560;BME280;62987;52.382;9.752;2023-08-08T00:46:21;100479.84;;;12.33;100.00
72560;BME280;62987;52.382;9.752;2023-08-08T00:48:51;100466.69;;;12.30;100.00
72560;BME280;62987;52.382;9.752;2023-08-08T00:51:21;100458.03;;;12.25;100.00
72560;BME280;62987;52.382;9.752;2023-08-08T00:53:49;100452.63;;;12.27;100.00
72560;BME280;62987;52.382;9.752;2023-08-08T00:56:18;100468.25;;;12.34;100.00
72560;BME280;62987;52.382;9.752;2023-08-08T00:58:46;100461.63;;;12.41;100.00
72560;BME280;62987;52.382;9.752;2023-08-08T01:01:18;100445.44;;;12.29;100.00
72560;BME280;62987;52.382;9.752;2023-08-08T01:03:48;100463.53;;;12.39;100.00
72560;BME280;62987;52.382;9.752;2023-08-08T01:06:21;100461.78;;;12.38;100.00
72560;BME280;62987;52.382;9.752;2023-08-08T01:09:09;100454.91;;;12.34;100.00
72560;BME280;62987;52.382;9.752;2023-08-08T01:11:41;100429.22;;;12.16;100.00
72560;BME280;62987;52.382;9.752;2023-08-08T01:14:10;100455.91;;;12.32;100.00
72560;BME280;62987;52.382;9.752;2023-08-08T01:16:42;100461.19;;;12.33;100.00
72560;BME280;62987;52.382;9.752;2023-08-08T01:19:13;100404.31;;;12.00;100.00
72560;BME280;62987;52.382;9.752;2023-08-08T01:21:44;100456.56;;;12.37;100.00
72560;BME280;62987;52.382;9.752;2023-08-08T01:24:18;100455.59;;;12.38;100.00
72560;BME280;62987;52.382;9.752;2023-08-08T01:26:47;100416.50;;;12.21;100.00
72560;BME280;62987;52.382;9.752;2023-08-08T01:29:16;100440.63;;;12.35;100.00
72560;BME280;62987;52.382;9.752;2023-08-08T01:31:44;100403.50;;;12.15;100.00
72560;BME280;62987;52.382;9.752;2023-08-08T01:34:13;100412.09;;;12.20;100.00
72560;BME280;62987;52.382;9.752;2023-08-08T01:36:47;100426.34;;;12.36;100.00
72560;BME280;62987;52.382;9.752;2023-08-08T01:39:27;100403.97;;;12.23;100.00
72560;BME280;62987;52.382;9.752;2023-08-08T01:41:58;100440.56;;;12.37;100.00
72560;BME280;62987;52.382;9.752;2023-08-08T01:44:28;100405.34;;;12.30;100.00
72560;BME280;62987;52.382;9.752;2023-08-08T01:46:58;100398.63;;;12.23;100.00
72560;BME280;62987;52.382;9.752;2023-08-08T01:49:26;100434.97;;;12.41;100.00
72560;BME280;62987;52.382;9.752;2023-08-08T01:51:55;100417.22;;;12.40;100.00
72560;BME280;62987;52.382;9.752;2023-08-08T01:54:25;100408.78;;;12.32;100.00
72560;BME280;62987;52.382;9.752;2023-08-08T01:56:53;100389.03;;;12.19;100.00
72560;BME280;62987;52.382;9.752;2023-08-08T01:59:21;100409.41;;;12.37;100.00
72560;BME280;62987;52.382;9.752;2023-08-08T02:01:49;100431.03;;;12.49;100.00
72560;BME280;62987;52.382;9.752;2023-08-08T02:04:19;100426.19;;;12.39;100.00
72560;BME280;62987;52.382;9.752;2023-08-08T02:06:48;100419.81;;;12.42;100.00
72560;BME280;62987;52.382;9.752;2023-08-08T02:09:16;100413.63;;;12.41;100.00
72560;BME280;62987;52.382;9.752;2023-08-08T02:11:49;100416.75;;;12.50;100.00
72560;BME280;62987;52.382;9.752;2023-08-08T02:14:19;100415.03;;;12.49;100.00
72560;BME280;62987;52.382;9.752;2023-08-08T02:16:48;100384.50;;;12.21;100.00
72560;BME280;62987;52.382;9.752;2023-08-08T02:19:16;100375.38;;;12.25;100.00
72560;BME280;62987;52.382;9.752;2023-08-08T02:21:44;100404.69;;;12.43;100.00
72560;BME280;62987;52.382;9.752;2023-08-08T02:24:13;100402.34;;;12.36;100.00
72560;BME280;62987;52.382;9.752;2023-08-08T02:26:41;100383.50;;;12.24;100.00
72560;BME280;62987;52.382;9.752;2023-08-08T02:29:11;100400.56;;;12.37;100.00
72560;BME280;62987;52.382;9.752;2023-08-08T02:31:39;100396.09;;;12.37;100.00
72560;BME280;62987;52.382;9.752;2023-08-08T02:34:07;100371.78;;;12.26;100.00
72560;BME280;62987;52.382;9.752;2023-08-08T02:36:35;100400.75;;;12.50;100.00
72560;BME280;62987;52.382;9.752;2023-08-08T02:39:03;100409.50;;;12.52;100.00
72560;BME280;62987;52.382;9.752;2023-08-08T02:41:31;100392.22;;;12.43;100.00
72560;BME280;62987;52.382;9.752;2023-08-08T02:44:00;100410.88;;;12.59;100.00
72560;BME280;62987;52.382;9.752;2023-08-08T02:46:29;100403.06;;;12.56;100.00
72560;BME280;62987;52.382;9.752;2023-08-08T02:48:58;100392.47;;;12.54;100.00
72560;BME280;62987;52.382;9.752;2023-08-08T02:51:26;100404.81;;;12.57;100.00
72560;BME280;62987;52.382;9.752;2023-08-08T02:53:54;100402.81;;;12.60;100.00
72560;BME280;62987;52.382;9.752;2023-08-08T02:56:23;100398.34;;;12.61;100.00
72560;BME280;62987;52.382;9.752;2023-08-08T02:58:52;100401.78;;;12.63;100.00
72560;BME280;62987;52.382;9.752;2023-08-08T03:01:20;100400.06;;;12.62;100.00
72560;BME280;62987;52.382;9.752;2023-08-08T03:03:51;100396.28;;;12.66;100.00
72560;BME280;62987;52.382;9.752;2023-08-08T03:06:21;100393.19;;;12.73;100.00
72560;BME280;62987;52.382;9.752;2023-08-08T03:08:51;100389.66;;;12.73;100.00
72560;BME280;62987;52.382;9.752;2023-08-08T03:11:19;100378.19;;;12.71;100.00
72560;BME280;62987;52.382;9.752;2023-08-08T03:13:48;100362.38;;;12.68;100.00
72560;BME280;62987;52.382;9.752;2023-08-08T03:16:16;100351.00;;;12.49;100.00
72560;BME280;62987;52.382;9.752;2023-08-08T03:18:45;100392.56;;;12.84;100.00
72560;BME280;62987;52.382;9.752;2023-08-08T03:21:15;100393.00;;;12.92;100.00
72560;BME280;62987;52.382;9.752;2023-08-08T03:23:44;100388.38;;;12.96;100.00
72560;BME280;62987;52.382;9.752;2023-08-08T03:26:12;100384.63;;;12.98;100.00
72560;BME280;62987;52.382;9.752;2023-08-08T03:28:43;100311.59;;;12.54;100.00
72560;BME280;62987;52.382;9.752;2023-08-08T03:31:11;100375.53;;;13.02;100.00
72560;BME280;62987;52.382;9.752;2023-08-08T03:33:41;100375.53;;;13.02;100.00
72560;BME280;62987;52.382;9.752;2023-08-08T03:36:10;100387.16;;;13.01;100.00
72560;BME280;62987;52.382;9.752;2023-08-08T03:38:40;100382.56;;;13.03;100.00
72560;BME280;62987;52.382;9.752;2023-08-08T03:41:11;100391.44;;;13.04;100.00
72560;BME280;62987;52.382;9.752;2023-08-08T03:43:40;100378.00;;;13.05;100.00
72560;BME280;62987;52.382;9.752;2023-08-08T03:46:08;100378.28;;;13.01;100.00
72560;BME280;62987;52.382;9.752;2023-08-08T03:48:38;100380.94;;;13.01;100.00
72560;BME280;62987;52.382;9.752;2023-08-08T03:51:06;100361.75;;;12.94;100.00
72560;BME280;62987;52.382;9.752;2023-08-08T03:53:37;100361.03;;;12.91;100.00
72560;BME280;62987;52.382;9.752;2023-08-08T03:56:06;100379.22;;;13.00;100.00
72560;BME280;62987;52.382;9.752;2023-08-08T03:58:35;100363.47;;;12.95;100.00
72560;BME280;62987;52.382;9.752;2023-08-08T04:01:05;100366.19;;;13.09;100.00
72560;BME280;62987;52.382;9.752;2023-08-08T04:03:34;100336.16;;;12.90;100.00
72560;BME280;62987;52.382;9.752;2023-08-08T04:06:03;100288.25;;;12.73;100.00
72560;BME280;62987;52.382;9.752;2023-08-08T04:08:32;100335.63;;;12.99;100.00
72560;BME280;62987;52.382;9.752;2023-08-08T04:11:00;100347.50;;;13.09;100.00
72560;BME280;62987;52.382;9.752;2023-08-08T04:13:30;100314.47;;;12.96;100.00
72560;BME280;62987;52.382;9.752;2023-08-08T04:15:58;100359.56;;;13.16;100.00
72560;BME280;62987;52.382;9.752;2023-08-08T04:18:26;100365.63;;;13.20;100.00
72560;BME280;62987;52.382;9.752;2023-08-08T04:20:54;100351.75;;;13.13;100.00
72560;BME280;62987;52.382;9.752;2023-08-08T04:23:22;100353.38;;;13.16;100.00
72560;BME280;62987;52.382;9.752;2023-08-08T04:25:52;100366.28;;;13.24;100.00
72560;BME280;62987;52.382;9.752;2023-08-08T04:28:20;100297.09;;;12.89;100.00
72560;BME280;62987;52.382;9.752;2023-08-08T04:30:50;100344.63;;;13.14;100.00
72560;BME280;62987;52.382;9.752;2023-08-08T04:33:18;100348.72;;;13.19;100.00
72560;BME280;62987;52.382;9.752;2023-08-08T04:35:46;100355.59;;;13.24;100.00
72560;BME280;62987;52.382;9.752;2023-08-08T04:38:15;100320.41;;;13.01;100.00
72560;BME280;62987;52.382;9.752;2023-08-08T04:40:43;100358.56;;;13.19;100.00
72560;BME280;62987;52.382;9.752;2023-08-08T04:43:11;100300.72;;;12.88;100.00
72560;BME280;62987;52.382;9.752;2023-08-08T04:45:39;100322.72;;;13.07;100.00
72560;BME280;62987;52.382;9.752;2023-08-08T04:48:09;100359.13;;;13.24;100.00
72560;BME280;62987;52.382;9.752;2023-08-08T04:50:37;100355.50;;;13.25;100.00
72560;BME280;62987;52.382;9.752;2023-08-08T04:53:06;100343.81;;;13.28;100.00
72560;BME280;62987;52.382;9.752;2023-08-08T04:55:34;100330.63;;;13.25;100.00
72560;BME280;62987;52.382;9.752;2023-08-08T04:58:02;100345.91;;;13.37;100.00
72560;BME280;62987;52.382;9.752;2023-08-08T05:00:30;100298.59;;;13.09;100.00
72560;BME280;62987;52.382;9.752;2023-08-08T05:02:58;100338.59;;;13.40;100.00
72560;BME280;62987;52.382;9.752;2023-08-08T05:05:28;100334.97;;;13.41;100.00
72560;BME280;62987;52.382;9.752;2023-08-08T05:07:57;100298.56;;;13.25;100.00
72560;BME280;62987;52.382;9.752;2023-08-08T05:10:25;100327.63;;;13.45;100.00
72560;BME280;62987;52.382;9.752;2023-08-08T05:12:53;100264.06;;;13.06;100.00
72560;BME280;62987;52.382;9.752;2023-08-08T05:15:21;100320.38;;;13.47;100.00
72560;BME280;62987;52.382;9.752;2023-08-08T05:17:49;100317.09;;;13.42;100.00
72560;BME280;62987;52.382;9.752;2023-08-08T05:20:18;100317.72;;;13.47;100.00
72560;BME280;62987;52.382;9.752;2023-08-08T05:22:48;100284.84;;;13.31;100.00
72560;BME280;62987;52.382;9.752;2023-08-08T05:25:17;100290.19;;;13.31;100.00
72560;BME280;62987;52.382;9.752;2023-08-08T05:27:45;100285.25;;;13.39;100.00
72560;BME280;62987;52.382;9.752;2023-08-08T05:30:13;100320.31;;;13.63;100.00
72560;BME280;62987;52.382;9.752;2023-08-08T05:32:43;100321.00;;;13.66;100.00
72560;BME280;62987;52.382;9.752;2023-08-08T05:35:11;100316.38;;;13.68;100.00
72560;BME280;62987;52.382;9.752;2023-08-08T05:37:39;100294.66;;;13.60;100.00
72560;BME280;62987;52.382;9.752;2023-08-08T05:40:10;100310.66;;;13.74;100.00
72560;BME280;62987;52.382;9.752;2023-08-08T05:42:38;100309.72;;;13.75;100.00
72560;BME280;62987;52.382;9.752;2023-08-08T05:45:07;100276.81;;;13.60;100.00
72560;BME280;62987;52.382;9.752;2023-08-08T05:47:36;100318.69;;;13.88;100.00
72560;BME280;62987;52.382;9.752;2023-08-08T05:50:05;100309.16;;;13.84;100.00
72560;BME280;62987;52.382;9.752;2023-08-08T05:52:33;100280.31;;;13.75;100.00
72560;BME280;62987;52.382;9.752;2023-08-08T05:55:01;100313.75;;;13.96;100.00
72560;BME280;62987;52.382;9.752;2023-08-08T05:57:31;100335.91;;;14.13;100.00
72560;BME280;62987;52.382;9.752;2023-08-08T05:59:59;100294.84;;;13.99;100.00
72560;BME280;62987;52.382;9.752;2023-08-08T06:02:38;100331.31;;;14.15;100.00
72560;BME280;62987;52.382;9.752;2023-08-08T06:05:07;100336.88;;;14.26;100.00
72560;BME280;62987;52.382;9.752;2023-08-08T06:07:36;100315.09;;;14.18;100.00
72560;BME280;62987;52.382;9.752;2023-08-08T06:10:05;100311.56;;;14.17;100.00
72560;BME280;62987;52.382;9.752;2023-08-08T06:12:35;100331.13;;;14.32;100.00
72560;BME280;62987;52.382;9.752;2023-08-08T06:15:04;100268.50;;;13.93;100.00
72560;BME280;62987;52.382;9.752;2023-08-08T06:17:32;100311.81;;;14.27;100.00
72560;BME280;62987;52.382;9.752;2023-08-08T06:20:00;100334.38;;;14.37;100.00
72560;BME280;62987;52.382;9.752;2023-08-08T06:22:28;100327.84;;;14.55;100.00
72560;BME280;62987;52.382;9.752;2023-08-08T06:24:57;100319.13;;;14.66;100.00
72560;BME280;62987;52.382;9.752;2023-08-08T06:27:25;100319.41;;;14.75;100.00
72560;BME280;62987;52.382;9.752;2023-08-08T06:29:55;100276.91;;;14.57;100.00
72560;BME280;62987;52.382;9.752;2023-08-08T06:32:23;100338.16;;;15.02;100.00
72560;BME280;62987;52.382;9.752;2023-08-08T06:34:51;100334.19;;;15.08;100.00
72560;BME280;62987;52.382;9.752;2023-08-08T06:37:19;100338.78;;;15.06;100.00
72560;BME280;62987;52.382;9.752;2023-08-08T06:39:47;100340.69;;;15.04;100.00
72560;BME280;62987;52.382;9.752;2023-08-08T06:42:15;100334.88;;;15.24;100.00
72560;BME280;62987;52.382;9.752;2023-08-08T06:44:54;100332.47;;;15.46;100.00
72560;BME280;62987;52.382;9.752;2023-08-08T06:47:23;100334.88;;;15.24;100.00
72560;BME280;62987;52.382;9.752;2023-08-08T06:49:51;100327.72;;;15.37;100.00
72560;BME280;62987;52.382;9.752;2023-08-08T06:52:19;100328.38;;;15.68;100.00
72560;BME280;62987;52.382;9.752;2023-08-08T06:54:47;100337.25;;;15.55;100.00
72560;BME280;62987;52.382;9.752;2023-08-08T06:57:15;100348.19;;;15.65;100.00
72560;BME280;62987;52.382;9.752;2023-08-08T06:59:43;100316.25;;;15.87;100.00
72560;BME280;62987;52.382;9.752;2023-08-08T07:02:14;100328.38;;;15.93;100.00
72560;BME280;62987;52.382;9.752;2023-08-08T07:04:43;100315.59;;;15.84;100.00
72560;BME280;62987;52.382;9.752;2023-08-08T07:07:11;100314.97;;;15.93;100.00
72560;BME280;62987;52.382;9.752;2023-08-08T07:09:39;100331.69;;;15.96;100.00
72560;BME280;62987;52.382;9.752;2023-08-08T07:12:08;100329.38;;;16.28;100.00
72560;BME280;62987;52.382;9.752;2023-08-08T07:14:37;100322.34;;;16.02;100.00
72560;BME280;62987;52.382;9.752;2023-08-08T07:17:05;100313.00;;;15.82;100.00
72560;BME280;62987;52.382;9.752;2023-08-08T07:19:35;100316.25;;;15.75;100.00
72560;BME280;62987;52.382;9.752;2023-08-08T07:22:03;100335.03;;;15.75;100.00
72560;BME280;62987;52.382;9.752;2023-08-08T07:24:31;100318.38;;;15.95;100.00
72560;BME280;62987;52.382;9.752;2023-08-08T07:26:59;100332.44;;;16.11;100.00
72560;BME280;62987;52.382;9.752;2023-08-08T07:29:28;100328.88;;;16.23;100.00
72560;BME280;62987;52.382;9.752;2023-08-08T07:31:58;100314.69;;;16.21;100.00
72560;BME280;62987;52.382;9.752;2023-08-08T07:34:26;100307.34;;;16.49;100.00
72560;BME280;62987;52.382;9.752;2023-08-08T07:36:56;100318.75;;;16.39;100.00
72560;BME280;62987;52.382;9.752;2023-08-08T07:39:24;100287.50;;;16.38;100.00
72560;BME280;62987;52.382;9.752;2023-08-08T07:41:53;100299.38;;;16.60;100.00
72560;BME280;62987;52.382;9.752;2023-08-08T07:44:21;100292.19;;;16.60;100.00
72560;BME280;62987;52.382;9.752;2023-08-08T07:46:49;100304.53;;;16.63;100.00
72560;BME280;62987;52.382;9.752;2023-08-08T07:49:18;100284.53;;;16.54;100.00
72560;BME280;62987;52.382;9.752;2023-08-08T07:51:46;100297.75;;;16.94;100.00
72560;BME280;62987;52.382;9.752;2023-08-08T07:54:15;100309.75;;;17.01;100.00
72560;BME280;62987;52.382;9.752;2023-08-08T07:56:44;100294.16;;;16.82;100.00
72560;BME280;62987;52.382;9.752;2023-08-08T07:59:12;100311.59;;;16.76;100.00
72560;BME280;62987;52.382;9.752;2023-08-08T08:01:41;100297.09;;;16.66;100.00
72560;BME280;62987;52.382;9.752;2023-08-08T08:04:12;100275.41;;;16.57;100.00
72560;BME280;62987;52.382;9.752;2023-08-08T08:06:40;100250.84;;;16.63;100.00
72560;BME280;62987;52.382;9.752;2023-08-08T08:09:11;100295.13;;;16.81;100.00
72560;BME280;62987;52.382;9.752;2023-08-08T08:11:41;100263.28;;;16.88;100.00
72560;BME280;62987;52.382;9.752;2023-08-08T08:14:09;100304.06;;;17.51;100.00
72560;BME280;62987;52.382;9.752;2023-08-08T08:16:37;100297.09;;;17.49;100.00
72560;BME280;62987;52.382;9.752;2023-08-08T08:19:05;100290.22;;;17.69;100.00
72560;BME280;62987;52.382;9.752;2023-08-08T08:21:33;100295.00;;;17.87;100.00
72560;BME280;62987;52.382;9.752;2023-08-08T08:24:02;100256.72;;;18.06;100.00
72560;BME280;62987;52.382;9.752;2023-08-08T08:26:30;100285.06;;;18.66;100.00
72560;BME280;62987;52.382;9.752;2023-08-08T08:29:00;100288.91;;;19.69;100.00
72560;BME280;62987;52.382;9.752;2023-08-08T08:31:29;100276.53;;;19.66;100.00
72560;BME280;62987;52.382;9.752;2023-08-08T08:33:57;100272.84;;;19.88;100.00
72560;BME280;62987;52.382;9.752;2023-08-08T08:36:25;100221.72;;;18.71;100.00
72560;BME280;62987;52.382;9.752;2023-08-08T08:38:54;100236.13;;;18.82;100.00
72560;BME280;62987;52.382;9.752;2023-08-08T08:41:27;100248.22;;;18.55;100.00
72560;BME280;62987;52.382;9.752;2023-08-08T08:43:55;100249.97;;;18.12;100.00
72560;BME280;62987;52.382;9.752;2023-08-08T08:46:26;100257.06;;;18.24;100.00
72560;BME280;62987;52.382;9.752;2023-08-08T08:48:55;100226.66;;;18.55;100.00
72560;BME280;62987;52.382;9.752;2023-08-08T08:51:23;100249.81;;;18.47;100.00
72560;BME280;62987;52.382;9.752;2023-08-08T08:53:52;100242.66;;;18.14;100.00
72560;BME280;62987;52.382;9.752;2023-08-08T08:56:20;100249.97;;;17.78;100.00
72560;BME280;62987;52.382;9.752;2023-08-08T08:58:50;100257.06;;;17.68;100.00
72560;BME280;62987;52.382;9.752;2023-08-08T09:01:19;100250.66;;;17.58;100.00
72560;BME280;62987;52.382;9.752;2023-08-08T09:03:50;100253.19;;;17.94;100.00
72560;BME280;62987;52.382;9.752;2023-08-08T09:06:18;100219.91;;;17.62;100.00
72560;BME280;62987;52.382;9.752;2023-08-08T09:08:47;100246.16;;;17.70;100.00
72560;BME280;62987;52.382;9.752;2023-08-08T09:11:19;100238.97;;;17.81;100.00
72560;BME280;62987;52.382;9.752;2023-08-08T09:13:47;100246.09;;;17.82;100.00
72560;BME280;62987;52.382;9.752;2023-08-08T09:16:15;100207.31;;;18.50;100.00
72560;BME280;62987;52.382;9.752;2023-08-08T09:18:44;100239.63;;;18.50;100.00
72560;BME280;62987;52.382;9.752;2023-08-08T09:21:13;100230.88;;;17.70;100.00
72560;BME280;62987;52.382;9.752;2023-08-08T09:23:42;100254.00;;;17.84;100.00
72560;BME280;62987;52.382;9.752;2023-08-08T09:26:14;100263.13;;;17.59;100.00
72560;BME280;62987;52.382;9.752;2023-08-08T09:28:43;100227.00;;;17.17;100.00
72560;BME280;62987;52.382;9.752;2023-08-08T09:31:12;100234.97;;;17.30;100.00
72560;BME280;62987;52.382;9.752;2023-08-08T09:33:40;100199.59;;;17.12;100.00
72560;BME280;62987;52.382;9.752;2023-08-08T09:36:14;100269.66;;;17.22;100.00
72560;BME280;62987;52.382;9.752;2023-08-08T09:38:43;100236.06;;;16.92;100.00
72560;BME280;62987;52.382;9.752;2023-08-08T09:41:12;100223.38;;;16.94;100.00
72560;BME280;62987;52.382;9.752;2023-08-08T09:43:43;100261.38;;;17.36;100.00
72560;BME280;62987;52.382;9.752;2023-08-08T09:46:11;100262.47;;;17.33;100.00
72560;BME280;62987;52.382;9.752;2023-08-08T09:48:40;100256.63;;;17.39;100.00
72560;BME280;62987;52.382;9.752;2023-08-08T09:51:08;100253.25;;;17.25;100.00
72560;BME280;62987;52.382;9.752;2023-08-08T09:53:39;100242.75;;;17.22;100.00
72560;BME280;62987;52.382;9.752;2023-08-08T09:56:08;100248.41;;;17.30;100.00
72560;BME280;62987;52.382;9.752;2023-08-08T09:58:36;100227.03;;;17.28;100.00
72560;BME280;62987;52.382;9.752;2023-08-08T10:01:05;100244.41;;;17.57;100.00
72560;BME280;62987;52.382;9.752;2023-08-08T10:03:34;100225.03;;;17.65;100.00
72560;BME280;62987;52.382;9.752;2023-08-08T10:06:04;100207.63;;;17.58;100.00
72560;BME280;62987;52.382;9.752;2023-08-08T10:08:33;100225.47;;;17.37;100.00
72560;BME280;62987;52.382;9.752;2023-08-08T10:11:05;100217.16;;;17.51;100.00
72560;BME280;62987;52.382;9.752;2023-08-08T10:13:38;100200.94;;;17.64;100.00
72560;BME280;62987;52.382;9.752;2023-08-08T10:16:15;100257.41;;;18.30;100.00
72560;BME280;62987;52.382;9.752;2023-08-08T10:18:44;100239.63;;;18.50;100.00
72560;BME280;62987;52.382;9.752;2023-08-08T10:21:13;100183.97;;;19.03;100.00
72560;BME280;62987;52.382;9.752;2023-08-08T10:23:42;100252.56;;;19.31;100.00
72560;BME280;62987;52.382;9.752;2023-08-08T10:26:19;100220.84;;;19.03;100.00
72560;BME280;62987;52.382;9.752;2023-08-08T10:28:55;100240.88;;;18.89;100.00
72560;BME280;62987;52.382;9.752;2023-08-08T10:31:26;100253.72;;;18.65;100.00
72560;BME280;62987;52.382;9.752;2023-08-08T10:34:05;100252.28;;;18.82;100.00
72560;BME280;62987;52.382;9.752;2023-08-08T10:36:58;100254.06;;;18.71;100.00
72560;BME280;62987;52.382;9.752;2023-08-08T10:39:26;100241.59;;;18.48;100.00
72560;BME280;62987;52.382;9.752;2023-08-08T10:42:01;100238.66;;;18.94;100.00
72560;BME280;62987;52.382;9.752;2023-08-08T10:44:31;100222.19;;;18.76;100.00
72560;BME280;62987;52.382;9.752;2023-08-08T10:47:00;100247.59;;;18.95;100.00
72560;BME280;62987;52.382;9.752;2023-08-08T10:49:28;100260.31;;;18.50;100.00
72560;BME280;62987;52.382;9.752;2023-08-08T10:52:04;100243.41;;;18.48;100.00
72560;BME280;62987;52.382;9.752;2023-08-08T10:54:32;100249.13;;;18.76;100.00
72560;BME280;62987;52.382;9.752;2023-08-08T10:57:01;100248.84;;;18.91;100.00
72560;BME280;62987;52.382;9.752;2023-08-08T10:59:36;100251.81;;;19.08;100.00
72560;BME280;62987;52.382;9.752;2023-08-08T11:02:05;100229.41;;;19.08;100.00
72560;BME280;62987;52.382;9.752;2023-08-08T11:04:33;100222.03;;;19.51;100.00
72560;BME280;62987;52.382;9.752;2023-08-08T11:07:03;100209.44;;;19.82;100.00
72560;BME280;62987;52.382;9.752;2023-08-08T11:09:32;100221.69;;;19.45;100.00
72560;BME280;62987;52.382;9.752;2023-08-08T11:12:01;100200.78;;;18.96;100.00
72560;BME280;62987;52.382;9.752;2023-08-08T11:14:29;100228.81;;;19.25;100.00
72560;BME280;62987;52.382;9.752;2023-08-08T11:16:58;100238.94;;;19.33;100.00
72560;BME280;62987;52.382;9.752;2023-08-08T11:19:26;100226.63;;;19.19;100.00
72560;BME280;62987;52.382;9.752;2023-08-08T11:21:54;100235.22;;;19.24;100.00
72560;BME280;62987;52.382;9.752;2023-08-08T11:24:22;100101.47;;;18.70;100.00
72560;BME280;62987;52.382;9.752;2023-08-08T11:26:50;100237.84;;;19.77;100.00
72560;BME280;62987;52.382;9.752;2023-08-08T11:29:27;100227.47;;;19.82;100.00
72560;BME280;62987;52.382;9.752;2023-08-08T11:31:59;100221.44;;;19.99;100.00
72560;BME280;62987;52.382;9.752;2023-08-08T11:34:30;100220.38;;;19.50;100.00
72560;BME280;62987;52.382;9.752;2023-08-08T11:37:00;100212.16;;;19.20;100.00
72560;BME280;62987;52.382;9.752;2023-08-08T11:39:29;100212.91;;;19.22;100.00
72560;BME280;62987;52.382;9.752;2023-08-08T11:41:57;100215.59;;;19.22;100.00
72560;BME280;62987;52.382;9.752;2023-08-08T11:44:27;100193.47;;;18.87;100.00
72560;BME280;62987;52.382;9.752;2023-08-08T11:46:59;100203.09;;;18.80;100.00
72560;BME280;62987;52.382;9.752;2023-08-08T11:49:27;100213.44;;;18.41;100.00
72560;BME280;62987;52.382;9.752;2023-08-08T11:51:56;100231.75;;;18.04;100.00
72560;BME280;62987;52.382;9.752;2023-08-08T11:54:27;100234.06;;;17.64;100.00
72560;BME280;62987;52.382;9.752;2023-08-08T11:56:59;100236.81;;;17.40;100.00
72560;BME280;62987;52.382;9.752;2023-08-08T11:59:30;100199.78;;;17.44;100.00
72560;BME280;62987;52.382;9.752;2023-08-08T12:01:59;100227.44;;;18.24;100.00
72560;BME280;62987;52.382;9.752;2023-08-08T12:04:28;100227.91;;;18.29;100.00
72560;BME280;62987;52.382;9.752;2023-08-08T12:07:01;100193.47;;;17.89;100.00
72560;BME280;62987;52.382;9.752;2023-08-08T12:09:31;100239.66;;;18.28;100.00
72560;BME280;62987;52.382;9.752;2023-08-08T12:12:00;100206.59;;;18.37;100.00
72560;BME280;62987;52.382;9.752;2023-08-08T12:14:36;100235.22;;;18.49;100.00
72560;BME280;62987;52.382;9.752;2023-08-08T12:17:17;100230.78;;;18.70;100.00
72560;BME280;62987;52.382;9.752;2023-08-08T12:19:46;100198.75;;;18.56;100.00
72560;BME280;62987;52.382;9.752;2023-08-08T12:22:15;100226.13;;;19.04;100.00
72560;BME280;62987;52.382;9.752;2023-08-08T12:24:45;100230.34;;;19.18;100.00
72560;BME280;62987;52.382;9.752;2023-08-08T12:27:13;100227.28;;;19.32;100.00
72560;BME280;62987;52.382;9.752;2023-08-08T12:29:43;100234.22;;;19.67;100.00
72560;BME280;62987;52.382;9.752;2023-08-08T12:32:11;100206.56;;;19.33;100.00
72560;BME280;62987;52.382;9.752;2023-08-08T12:34:39;100221.31;;;19.08;100.00
72560;BME280;62987;52.382;9.752;2023-08-08T12:37:08;100191.63;;;18.66;100.00
72560;BME280;62987;52.382;9.752;2023-08-08T12:39:36;100227.13;;;18.71;100.00
72560;BME280;62987;52.382;9.752;2023-08-08T12:42:05;100212.97;;;18.47;100.00
72560;BME280;62987;52.382;9.752;2023-08-08T12:44:33;100177.03;;;18.69;100.00
72560;BME280;62987;52.382;9.752;2023-08-08T12:47:03;100228.19;;;19.01;100.00
72560;BME280;62987;52.382;9.752;2023-08-08T12:49:31;100232.84;;;19.51;100.00
72560;BME280;62987;52.382;9.752;2023-08-08T12:52:00;100222.19;;;19.29;100.00